Plainview, Texas
Current Conditions -  °F | °C
As of 10:55 PM on Monday 22 Dec 2014 (Local Time) from KPVW Reporting Station
Overcast Overcast  
Wind Chill: 37°   Ceiling: 6500
Heat Index: 37°   Visibility: 10mi
Dew Point: 35°   Wind: 0mph
Humidity: 90%   Direction: NA
Pressure: 29.76"   Gusts: NA
Location:  34.2°N, 101.69°W
Report Text: KPVW 230455Z AUTO 00000KT 10SM OVC065 03/02 A2976 RMK AO2 T00300015 TSNO
Loading
Personal Weather Stations






























Interactive Weather Map New forecast layout! Learn more

10-Day Weather Forecast

Advertisements
Track Severe Weather on mobile